Time;durP1;ratioP1;P1;durP2;ratioP2;P2;SDS_P1;SDS_P2;PMS_P1;PMS_P2;Temp;Humidity;BMP_temperature;BMP_pressure;BME280_temperature;BME280_humidity;BME280_pressure;Samples;Min_cycle;Max_cycle;Signal;HPM_P1;HPM_P2
2022/05/24 00:01:45;;;;;;;22.48;20.08;;;;;;;14.62;100.00;100046.91;5241101;28;20803;-69
2022/05/24 00:04:16;;;;;;;22.40;19.35;;;;;;;14.55;100.00;100049.44;5247012;28;20044;-69
2022/05/24 00:06:47;;;;;;;19.05;17.15;;;;;;;14.54;100.00;100045.16;5243177;28;20120;-69
2022/05/24 00:09:18;;;;;;;18.33;16.20;;;;;;;14.47;100.00;100041.53;5245136;28;20063;-69
2022/05/24 00:11:50;;;;;;;17.50;15.70;;;;;;;14.42;100.00;100038.63;5241626;28;20165;-69
2022/05/24 00:17:11;;;;;;;18.83;15.50;;;;;;;14.35;100.00;100036.66;5244133;28;20295;-69
2022/05/24 00:19:43;;;;;;;18.55;15.52;;;;;;;14.32;100.00;100033.59;5242640;28;20021;-69
2022/05/24 00:22:15;;;;;;;17.58;15.27;;;;;;;14.29;100.00;100037.38;5248778;28;20025;-69
2022/05/24 00:24:46;;;;;;;16.85;13.70;;;;;;;14.25;100.00;100044.00;5244019;28;20482;-69
2022/05/24 00:27:17;;;;;;;17.08;14.60;;;;;;;14.25;100.00;100046.63;5247300;28;20081;-69
2022/05/24 00:29:48;;;;;;;15.85;14.15;;;;;;;14.22;100.00;100044.34;5249219;28;20379;-69
2022/05/24 00:32:20;;;;;;;17.13;15.32;;;;;;;14.15;100.00;100037.31;5246425;28;20450;-69
2022/05/24 00:34:51;;;;;;;17.67;13.95;;;;;;;14.10;100.00;100035.19;5245694;28;20084;-69
2022/05/24 00:37:27;;;;;;;16.10;13.93;;;;;;;14.12;100.00;100041.09;5248815;28;20036;-69
2022/05/24 00:39:58;;;;;;;19.17;13.27;;;;;;;14.03;100.00;100031.59;5240949;28;20037;-69
2022/05/24 00:42:31;;;;;;;18.02;13.98;;;;;;;14.02;100.00;100032.59;5242308;28;20032;-69
2022/05/24 00:45:26;;;;;;;16.08;12.88;;;;;;;13.92;100.00;100013.56;5244005;28;20040;-69
2022/05/24 00:48:06;;;;;;;15.75;12.50;;;;;;;13.94;100.00;100022.94;5246341;28;20128;-69
2022/05/24 00:50:42;;;;;;;17.90;11.77;;;;;;;13.84;100.00;100036.28;5243145;28;20376;-69
2022/05/24 00:53:29;;;;;;;13.82;10.93;;;;;;;13.87;100.00;100035.13;5243517;28;20479;-69
2022/05/24 00:56:04;;;;;;;14.52;10.50;;;;;;;13.77;100.00;100035.31;5243729;28;20414;-69
2022/05/24 00:58:47;;;;;;;15.18;10.77;;;;;;;13.77;100.00;100037.97;5247464;28;20068;-68
2022/05/24 01:01:37;;;;;;;15.32;10.48;;;;;;;13.82;100.00;100024.28;5241418;28;20442;-69
2022/05/24 01:04:12;;;;;;;14.25;10.90;;;;;;;13.66;100.00;100026.97;5269966;22;20055;-68
2022/05/24 01:06:43;;;;;;;17.50;11.10;;;;;;;13.59;100.00;100026.84;5263878;28;20033;-68
2022/05/24 01:09:38;;;;;;;16.40;11.25;;;;;;;13.71;100.00;100025.47;5266823;28;20032;-68
2022/05/24 01:12:15;;;;;;;17.52;10.52;;;;;;;13.57;100.00;100026.19;5267663;28;20025;-68
2022/05/24 01:14:47;;;;;;;15.10;10.30;;;;;;;13.44;100.00;100024.06;5268644;28;20036;-68
2022/05/24 01:17:19;;;;;;;25.07;10.87;;;;;;;13.43;100.00;100030.34;5264343;28;20032;-68
2022/05/24 01:19:51;;;;;;;12.13;9.93;;;;;;;13.34;100.00;100019.03;5266849;28;20099;-68
2022/05/24 01:22:50;;;;;;;14.27;9.45;;;;;;;13.52;100.00;100025.88;5267688;28;20033;-68
2022/05/24 01:25:25;;;;;;;13.13;8.73;;;;;;;13.34;100.00;100024.28;5266005;28;20028;-68
2022/05/24 01:27:59;;;;;;;14.00;8.55;;;;;;;13.19;100.00;100033.81;5266698;28;20496;-68
2022/05/24 01:30:30;;;;;;;9.40;7.60;;;;;;;13.21;100.00;100038.91;5267689;28;20021;-68
2022/05/24 01:36:10;;;;;;;10.40;7.72;;;;;;;13.22;100.00;100048.41;5266254;28;20111;-68
2022/05/24 01:38:52;;;;;;;11.63;7.50;;;;;;;13.30;100.00;100044.03;5265206;28;20489;-68
2022/05/24 01:41:34;;;;;;;11.55;7.97;;;;;;;13.27;100.00;100040.91;5268563;28;20039;-69
2022/05/24 01:44:06;;;;;;;10.68;7.07;;;;;;;13.16;100.00;100055.19;5266991;28;20222;-68
2022/05/24 01:46:44;;;;;;;13.98;8.27;;;;;;;13.24;100.00;100036.78;5265528;28;20052;-68
2022/05/24 01:49:25;;;;;;;13.60;7.55;;;;;;;13.22;100.00;100040.53;5265021;28;20049;-68
2022/05/24 01:52:12;;;;;;;12.75;6.57;;;;;;;13.18;100.00;100045.31;5267455;28;20049;-68
2022/05/24 01:54:48;;;;;;;13.38;6.47;;;;;;;13.09;100.00;100041.06;5265479;28;20082;-68
2022/05/24 01:57:34;;;;;;;11.63;6.22;;;;;;;13.16;100.00;100039.41;5267554;28;20078;-68
2022/05/24 02:00:09;;;;;;;8.68;6.00;;;;;;;13.04;100.00;100033.66;5268733;28;20359;-68
2022/05/24 02:02:45;;;;;;;9.48;5.72;;;;;;;12.97;100.00;100029.25;5264400;28;20412;-68
2022/05/24 02:05:35;;;;;;;13.57;5.82;;;;;;;13.14;100.00;100030.84;5263709;28;20584;-68
2022/05/24 02:08:09;;;;;;;9.30;4.95;;;;;;;12.93;100.00;100033.19;5266116;28;20452;-68
2022/05/24 02:10:53;;;;;;;8.98;5.03;;;;;;;13.05;100.00;100037.13;5262460;28;20040;-68
2022/05/24 02:13:46;;;;;;;9.20;4.80;;;;;;;13.01;100.00;100027.91;5266409;28;20155;-68
2022/05/24 02:16:23;;;;;;;8.52;4.72;;;;;;;12.94;100.00;100050.59;5266336;28;20033;-68
2022/05/24 02:18:55;;;;;;;9.77;4.07;;;;;;;12.83;100.00;100038.59;5266797;28;20111;-68
2022/05/24 02:21:27;;;;;;;10.75;4.38;;;;;;;12.87;100.00;100043.34;5266622;28;20524;-68
2022/05/24 02:23:58;;;;;;;11.15;3.72;;;;;;;12.85;100.00;100053.22;5273980;28;20436;-68
2022/05/24 02:26:30;;;;;;;9.55;3.88;;;;;;;12.88;100.00;100055.53;5267354;28;20036;-68
2022/05/24 02:29:06;;;;;;;8.63;3.95;;;;;;;12.86;100.00;100044.34;5265479;28;20460;-68
2022/05/24 02:31:37;;;;;;;8.60;3.40;;;;;;;12.84;100.00;100041.09;5267216;28;20024;-68
2022/05/24 02:34:09;;;;;;;8.15;3.88;;;;;;;12.79;100.00;100045.16;5264525;28;20033;-68
2022/05/24 02:36:41;;;;;;;8.48;3.50;;;;;;;12.78;100.00;100046.97;5265024;28;20500;-68
2022/05/24 02:39:12;;;;;;;6.67;3.60;;;;;;;12.78;100.00;100054.88;5267129;28;20425;-68
2022/05/24 02:41:44;;;;;;;8.88;3.30;;;;;;;12.79;100.00;100050.44;5266261;28;20028;-68
2022/05/24 02:44:16;;;;;;;6.88;3.10;;;;;;;12.77;100.00;100047.97;5272939;28;20028;-68
2022/05/24 02:46:48;;;;;;;9.50;3.03;;;;;;;12.75;100.00;100049.94;5265698;28;20028;-68
2022/05/24 02:49:19;;;;;;;8.60;2.80;;;;;;;12.81;100.00;100046.66;5265847;28;20029;-68
2022/05/24 02:51:50;;;;;;;6.28;3.00;;;;;;;12.78;100.00;100048.78;5267539;28;20098;-68
2022/05/24 02:54:22;;;;;;;7.22;2.80;;;;;;;12.79;100.00;100053.88;5262479;28;20097;-68
2022/05/24 02:56:53;;;;;;;11.20;3.58;;;;;;;12.77;100.00;100063.75;5266803;28;20119;-68
2022/05/24 02:59:24;;;;;;;7.97;2.83;;;;;;;12.74;100.00;100047.47;5266255;28;20029;-68
2022/05/24 03:01:56;;;;;;;10.02;3.40;;;;;;;12.72;100.00;100037.09;5266608;28;20028;-68
2022/05/24 03:04:27;;;;;;;9.00;3.10;;;;;;;12.64;100.00;100035.31;5264190;28;20040;-68
2022/05/24 03:09:49;;;;;;;8.10;3.00;;;;;;;12.64;100.00;100042.38;5265181;28;20045;-68
2022/05/24 03:15:10;;;;;;;10.32;3.65;;;;;;;12.65;100.00;100041.38;5264663;28;20037;-68
2022/05/24 03:17:41;;;;;;;8.13;3.00;;;;;;;12.65;100.00;100046.63;5265201;28;20025;-68
2022/05/24 03:20:13;;;;;;;9.05;3.50;;;;;;;12.62;100.00;100042.53;5265754;28;20017;-68
2022/05/24 03:22:44;;;;;;;7.85;3.15;;;;;;;12.63;100.00;100052.06;5267580;28;20064;-68
2022/05/24 03:25:15;;;;;;;7.88;3.30;;;;;;;12.58;100.00;100045.66;5264695;28;20558;-68
2022/05/24 03:27:47;;;;;;;6.30;2.97;;;;;;;12.64;100.00;100047.63;5264316;28;20494;-68
2022/05/24 03:30:18;;;;;;;12.02;3.55;;;;;;;12.63;100.00;100052.06;5266793;28;20044;-69
2022/05/24 03:32:50;;;;;;;10.43;4.00;;;;;;;12.61;100.00;100059.31;5265355;28;20065;-68
2022/05/24 03:35:21;;;;;;;8.32;3.30;;;;;;;12.60;100.00;100052.38;5264679;28;20029;-68
2022/05/24 03:37:52;;;;;;;9.13;3.53;;;;;;;12.54;100.00;100045.16;5265691;28;20029;-69
2022/05/24 03:40:24;;;;;;;10.18;4.05;;;;;;;12.59;100.00;100049.94;5265597;28;20021;-68
2022/05/24 03:42:55;;;;;;;11.00;4.60;;;;;;;12.58;100.00;100049.09;5263061;28;20075;-68
2022/05/24 03:45:26;;;;;;;10.48;4.53;;;;;;;12.59;100.00;100049.94;5265616;28;20025;-68
2022/05/24 03:47:58;;;;;;;10.57;5.05;;;;;;;12.62;100.00;100049.59;5266747;28;20037;-68
2022/05/24 03:50:29;;;;;;;13.77;5.03;;;;;;;12.61;100.00;100050.56;5266376;28;20060;-68
2022/05/24 03:53:01;;;;;;;8.90;3.88;;;;;;;12.60;100.00;100060.25;5264458;28;20041;-68
2022/05/24 03:55:32;;;;;;;11.38;4.90;;;;;;;12.59;100.00;100079.66;5264502;28;20029;-68
2022/05/24 03:58:04;;;;;;;10.93;4.65;;;;;;;12.58;100.00;100079.81;5265986;28;20467;-68
2022/05/24 04:00:38;;;;;;;7.53;4.55;;;;;;;12.63;100.00;100080.16;5263725;28;20024;-68
2022/05/24 04:03:10;;;;;;;8.57;3.83;;;;;;;12.59;100.00;100084.91;5268334;28;20098;-68
2022/05/24 04:05:42;;;;;;;9.45;3.92;;;;;;;12.58;100.00;100111.34;5269106;28;20029;-68
2022/05/24 04:08:18;;;;;;;7.47;3.70;;;;;;;12.67;100.00;100105.13;5269704;28;20020;-68
2022/05/24 04:10:50;;;;;;;10.75;3.78;;;;;;;12.63;100.00;100111.69;5267590;28;20036;-68
2022/05/24 04:13:21;;;;;;;9.77;3.90;;;;;;;12.67;100.00;100123.50;5269156;28;20073;-68
2022/05/24 04:15:52;;;;;;;9.63;4.45;;;;;;;12.64;100.00;100118.56;5267516;28;20394;-68
2022/05/24 04:18:24;;;;;;;8.15;3.92;;;;;;;12.64;100.00;100123.81;5267519;28;20436;-68
2022/05/24 04:20:56;;;;;;;11.77;3.40;;;;;;;12.60;100.00;100106.75;5267176;28;20092;-68
2022/05/24 04:23:27;;;;;;;7.97;2.90;;;;;;;12.61;100.00;100080.31;5270098;28;20040;-68
2022/05/24 04:25:59;;;;;;;9.05;3.30;;;;;;;12.61;100.00;100075.06;5267920;28;20597;-69
2022/05/24 04:28:30;;;;;;;10.18;3.35;;;;;;;12.62;100.00;100071.44;5268645;28;20577;-68
2022/05/24 04:31:01;;;;;;;6.78;3.40;;;;;;;12.61;100.00;100085.56;5268683;28;20060;-68
2022/05/24 04:33:33;;;;;;;8.30;3.17;;;;;;;12.63;100.00;100090.66;5266192;28;20033;-68
2022/05/24 04:36:04;;;;;;;13.40;3.90;;;;;;;12.61;100.00;100116.25;5268116;28;20382;-68
2022/05/24 04:38:35;;;;;;;7.30;3.10;;;;;;;12.60;100.00;100130.38;5268315;28;20491;-68
2022/05/24 04:43:56;;;;;;;9.25;3.55;;;;;;;12.60;100.00;100120.69;5266900;28;20036;-68
2022/05/24 04:47:06;;;;;;;7.63;2.78;;;;;;;12.60;100.00;100104.94;5265824;28;20029;-68
2022/05/24 04:49:23;;;;;;;8.88;3.15;;;;;;;12.58;100.00;100120.06;5268351;28;20033;-69
2022/05/24 04:51:55;;;;;;;8.50;2.90;;;;;;;12.61;100.00;100129.41;5266483;28;20025;-68
2022/05/24 04:54:26;;;;;;;9.80;2.97;;;;;;;12.63;100.00;100132.72;5267985;28;20565;-68
2022/05/24 04:56:58;;;;;;;9.80;3.05;;;;;;;12.62;100.00;100144.22;5269033;28;20065;-69
2022/05/24 04:59:29;;;;;;;7.50;2.70;;;;;;;12.63;100.00;100148.47;5268720;28;20497;-69
2022/05/24 05:02:02;;;;;;;10.07;3.38;;;;;;;12.60;100.00;100148.78;5266561;28;20035;-69
2022/05/24 05:04:33;;;;;;;10.23;3.20;;;;;;;12.61;100.00;100158.31;5267603;28;20036;-68
2022/05/24 05:07:05;;;;;;;12.25;2.97;;;;;;;12.52;100.00;100165.34;5268372;28;20362;-68
2022/05/24 05:09:38;;;;;;;10.68;3.17;;;;;;;12.57;100.00;100178.00;5267290;28;20028;-69
2022/05/24 05:12:10;;;;;;;9.23;3.17;;;;;;;12.56;100.00;100184.25;5268433;28;20535;-68
2022/05/24 05:14:42;;;;;;;11.38;3.10;;;;;;;12.62;100.00;100179.19;5264500;28;20445;-69
2022/05/24 05:17:16;;;;;;;7.53;2.60;;;;;;;12.60;100.00;100183.75;5268280;28;20036;-69
2022/05/24 05:19:48;;;;;;;7.85;2.47;;;;;;;12.65;100.00;100185.91;5265379;28;20111;-68
2022/05/24 05:22:23;;;;;;;8.25;2.45;;;;;;;12.63;100.00;100185.25;5267718;28;20493;-69
2022/05/24 05:24:54;;;;;;;8.35;2.97;;;;;;;12.62;100.00;100160.78;5264677;28;20093;-68
2022/05/24 05:27:25;;;;;;;9.55;2.42;;;;;;;12.64;100.00;100160.63;5267459;28;20028;-69
2022/05/24 05:33:07;;;;;;;7.85;3.28;;;;;;;12.64;100.00;100179.84;5235269;28;20152;-68
2022/05/24 05:35:38;;;;;;;9.80;2.88;;;;;;;12.70;100.00;100172.31;5235853;28;20244;-69
2022/05/24 05:38:10;;;;;;;7.30;3.13;;;;;;;12.66;100.00;100169.19;5254539;28;20048;-69
2022/05/24 05:40:41;;;;;;;6.80;2.60;;;;;;;12.65;100.00;100160.47;5267956;28;20477;-69
2022/05/24 05:43:12;;;;;;;10.23;2.60;;;;;;;12.70;100.00;100170.50;5264840;28;20062;-68
2022/05/24 05:45:54;;;;;;;6.82;2.80;;;;;;;12.78;100.00;100165.25;5267877;28;20465;-68
2022/05/24 05:48:26;;;;;;;9.95;3.17;;;;;;;12.65;100.00;100168.38;5267579;28;20478;-68
2022/05/24 05:50:57;;;;;;;7.57;2.60;;;;;;;12.68;100.00;100182.97;5267930;28;20033;-69
2022/05/24 05:53:29;;;;;;;8.70;2.63;;;;;;;12.69;100.00;100186.41;5267200;28;20067;-68
2022/05/24 05:56:01;;;;;;;9.80;3.33;;;;;;;12.66;100.00;100212.06;5266483;28;20040;-68
2022/05/24 05:58:32;;;;;;;7.55;2.53;;;;;;;12.69;100.00;100210.06;5265324;28;20025;-68
2022/05/24 06:01:03;;;;;;;9.25;2.80;;;;;;;12.69;100.00;100215.31;5265936;28;20029;-68
2022/05/24 06:03:34;;;;;;;7.90;2.78;;;;;;;12.72;100.00;100228.16;5266668;28;20099;-69
2022/05/24 06:06:06;;;;;;;8.10;2.08;;;;;;;12.72;100.00;100222.91;5266442;28;20040;-69
2022/05/24 06:08:37;;;;;;;8.57;2.88;;;;;;;12.70;100.00;100212.56;5266591;28;20110;-69
2022/05/24 06:11:09;;;;;;;6.35;1.95;;;;;;;12.76;100.00;100222.41;5265946;28;20074;-69
2022/05/24 06:13:40;;;;;;;7.50;2.42;;;;;;;12.79;100.00;100219.47;5267022;28;20119;-68
2022/05/24 06:16:11;;;;;;;6.22;2.08;;;;;;;12.80;100.00;100218.47;5265582;28;20028;-68
2022/05/24 06:18:43;;;;;;;7.68;2.22;;;;;;;12.88;100.00;100223.78;5264866;28;20029;-68
2022/05/24 06:21:14;;;;;;;7.10;2.35;;;;;;;13.04;100.00;100230.06;5266636;28;20017;-68
2022/05/24 06:23:45;;;;;;;12.45;3.00;;;;;;;13.12;100.00;100225.63;5266289;28;20029;-68
2022/05/24 06:26:18;;;;;;;6.72;1.75;;;;;;;13.24;100.00;100228.81;5265187;28;20024;-69
2022/05/24 06:28:49;;;;;;;;;;;;;;;13.73;100.00;100230.66;5266691;28;20031;-69
2022/05/24 06:31:21;;;;;;;7.33;1.80;;;;;;;13.38;100.00;100220.28;5261135;28;20377;-69
2022/05/24 06:33:52;;;;;;;6.75;1.85;;;;;;;13.47;100.00;100230.81;5262748;28;20289;-68
2022/05/24 06:36:24;;;;;;;8.48;2.17;;;;;;;13.56;100.00;100230.66;5264709;28;20120;-68
2022/05/24 06:38:55;;;;;;;6.72;1.92;;;;;;;13.72;100.00;100232.47;5262567;28;20510;-68
2022/05/24 06:41:26;;;;;;;7.82;2.13;;;;;;;13.92;100.00;100226.84;5265529;28;20021;-69
2022/05/24 06:43:57;;;;;;;5.88;1.70;;;;;;;14.04;100.00;100239.47;5263336;28;20024;-69
2022/05/24 06:46:29;;;;;;;7.43;1.70;;;;;;;14.05;100.00;100249.06;5263957;28;20037;-68
2022/05/24 06:49:00;;;;;;;8.38;2.15;;;;;;;14.07;100.00;100247.06;5262557;28;20024;-69
2022/05/24 06:51:33;;;;;;;9.23;1.92;;;;;;;14.30;100.00;100256.91;5259567;28;20139;-68
2022/05/24 06:54:04;;;;;;;6.68;1.85;;;;;;;14.40;100.00;100260.16;5264900;28;20024;-69
2022/05/24 06:56:36;;;;;;;8.02;2.10;;;;;;;14.59;100.00;100266.91;5264932;28;20600;-69
2022/05/24 07:04:47;;;;;;;4.63;1.67;;;;;;;14.45;100.00;100272.84;5265963;28;20053;-70
2022/05/24 07:07:18;;;;;;;6.07;1.90;;;;;;;14.71;100.00;100272.63;5264812;28;20603;-70
2022/05/24 07:09:51;;;;;;;6.28;1.80;;;;;;;14.67;100.00;100274.78;5262585;28;20392;-70
2022/05/24 07:12:23;;;;;;;6.47;2.00;;;;;;;14.83;100.00;100284.44;5262917;28;20036;-69
2022/05/24 07:14:57;;;;;;;6.10;1.38;;;;;;;14.87;100.00;100287.53;5262598;28;20017;-70
2022/05/24 07:17:28;;;;;;;6.95;1.60;;;;;;;14.76;100.00;100292.19;5262315;28;20024;-70
2022/05/24 07:19:59;;;;;;;6.78;1.50;;;;;;;14.70;100.00;100284.97;5263228;28;20043;-70
2022/05/24 07:22:31;;;;;;;6.53;1.80;;;;;;;14.69;100.00;100283.31;5266218;28;20504;-69
2022/05/24 07:25:02;;;;;;;4.90;1.20;;;;;;;14.81;100.00;100286.41;5265088;28;20043;-69
2022/05/24 07:27:34;;;;;;;5.22;1.60;;;;;;;14.74;100.00;100294.19;5264109;28;20033;-71
2022/05/24 07:30:06;;;;;;;6.85;1.73;;;;;;;14.71;100.00;100296.34;5264823;28;20416;-69
2022/05/24 07:32:37;;;;;;;4.10;1.30;;;;;;;14.74;100.00;100302.09;5261947;28;20501;-71
2022/05/24 07:35:10;;;;;;;3.63;1.35;;;;;;;14.88;100.00;100303.19;5267372;28;20028;-70
2022/05/24 07:37:41;;;;;;;4.20;1.30;;;;;;;14.87;100.00;100298.91;5267947;28;20108;-70
2022/05/24 07:45:57;;;;;;;4.40;1.20;;;;;;;15.44;100.00;100303.88;5266613;28;20037;-70
2022/05/24 07:48:29;;;;;;;5.38;1.60;;;;;;;15.31;100.00;100315.03;5264754;28;20060;-70
2022/05/24 07:51:02;;;;;;;5.68;1.20;;;;;;;15.19;100.00;100311.13;5266406;28;20032;-70
2022/05/24 07:53:34;;;;;;;5.93;1.60;;;;;;;15.15;100.00;100314.28;5266840;28;20032;-70
2022/05/24 07:56:05;;;;;;;4.90;1.60;;;;;;;15.09;100.00;100313.16;5263088;28;20025;-70
2022/05/24 07:58:37;;;;;;;5.78;1.75;;;;;;;15.21;100.00;100316.22;5262497;28;20039;-69
2022/05/24 08:01:08;;;;;;;3.90;1.90;;;;;;;15.29;100.00;100319.63;5268225;28;20283;-69
2022/05/24 08:03:40;;;;;;;3.88;1.50;;;;;;;15.35;100.00;100322.59;5266961;28;20106;-70
2022/05/24 08:06:12;;;;;;;4.57;1.90;;;;;;;15.48;100.00;100320.19;5264730;28;20029;-71
2022/05/24 08:08:43;;;;;;;3.78;1.50;;;;;;;15.60;100.00;100329.34;5259617;28;20033;-70
2022/05/24 08:11:15;;;;;;;3.72;1.48;;;;;;;15.73;100.00;100332.28;5254214;28;20039;-70
2022/05/24 08:13:46;;;;;;;3.90;1.20;;;;;;;15.76;100.00;100336.41;5263992;28;20021;-70
2022/05/24 08:16:18;;;;;;;4.40;1.60;;;;;;;15.70;100.00;100340.53;5266127;28;20047;-70
2022/05/24 08:18:49;;;;;;;5.03;2.00;;;;;;;15.66;100.00;100331.34;5267698;28;20565;-70
2022/05/24 08:21:20;;;;;;;5.35;2.40;;;;;;;16.04;100.00;100341.94;5267879;28;20120;-70
2022/05/24 08:23:52;;;;;;;5.35;2.03;;;;;;;16.03;100.00;100341.13;5269344;28;20382;-70
2022/05/24 08:26:24;;;;;;;4.15;2.30;;;;;;;16.24;100.00;100343.06;5262855;28;20060;-71
2022/05/24 08:28:55;;;;;;;5.75;2.40;;;;;;;16.17;100.00;100352.72;5262893;28;20115;-71
2022/05/24 08:31:26;;;;;;;3.80;2.00;;;;;;;16.05;100.00;100354.16;5256212;28;20029;-70
2022/05/24 08:33:58;;;;;;;4.10;1.70;;;;;;;15.88;100.00;100364.03;5262241;28;20068;-70
2022/05/24 08:36:29;;;;;;;7.30;1.55;;;;;;;15.84;100.00;100361.94;5266812;28;20477;-70
2022/05/24 08:39:01;;;;;;;6.43;2.15;;;;;;;15.68;100.00;100376.88;5264075;28;20024;-71
2022/05/24 08:41:47;;;;;;;4.68;1.75;;;;;;;15.67;100.00;100372.56;5263164;28;20025;-71
2022/05/24 08:50:20;;;;;;;4.53;1.30;;;;;;;15.57;100.00;100398.38;5265609;28;20080;-71
2022/05/24 08:52:59;;;;;;;5.32;1.63;;;;;;;15.76;100.00;100397.16;5266795;28;20020;-70
2022/05/24 08:55:32;;;;;;;3.25;1.15;;;;;;;15.67;100.00;100392.88;5263440;28;20041;-70
2022/05/24 08:58:09;;;;;;;4.03;1.33;;;;;;;15.57;100.00;100398.38;5264513;28;20604;-71
2022/05/24 09:00:41;;;;;;;2.85;0.98;;;;;;;15.41;100.00;100406.34;5269108;28;20021;-70
2022/05/24 09:03:12;;;;;;;4.43;1.08;;;;;;;15.29;100.00;100413.84;5264600;28;20078;-69
2022/05/24 09:05:55;;;;;;;2.72;1.00;;;;;;;15.36;100.00;100416.63;5260604;28;20654;-70
2022/05/24 09:08:33;;;;;;;5.43;1.17;;;;;;;15.21;100.00;100419.16;5258035;28;20036;-70
2022/05/24 09:11:36;;;;;;;3.55;1.02;;;;;;;15.43;100.00;100422.84;5263003;28;20024;-70
2022/05/24 09:14:11;;;;;;;2.10;1.00;;;;;;;15.44;100.00;100429.78;5264791;28;20052;-70
2022/05/24 09:17:08;;;;;;;5.03;1.23;;;;;;;15.70;100.00;100427.69;5257857;28;20047;-70
2022/05/24 09:19:42;;;;;;;7.90;1.73;;;;;;;15.79;100.00;100431.09;5249050;28;20090;-69
2022/05/24 09:22:14;;;;;;;4.70;2.20;;;;;;;15.89;100.00;100438.81;5266363;28;20027;-70
2022/05/24 09:24:56;;;;;;;12.63;2.28;;;;;;;15.76;100.00;100432.28;5268336;28;20028;-70
2022/05/24 09:27:30;;;;;;;4.22;2.08;;;;;;;15.66;100.00;100442.25;5266679;28;20025;-70
2022/05/24 09:30:45;;;;;;;6.57;2.42;;;;;;;15.58;100.00;100447.53;5263377;28;20056;-70
2022/05/24 09:33:23;;;;;;;7.13;2.38;;;;;;;15.49;100.00;100451.19;5170515;28;20042;-70
2022/05/24 09:35:59;;;;;;;3.80;2.33;;;;;;;15.36;100.00;100451.75;5171396;28;20034;-70
2022/05/24 09:38:37;;;;;;;4.70;2.25;;;;;;;15.54;100.00;100454.16;5228827;28;20040;-70
2022/05/24 09:41:15;;;;;;;5.20;2.38;;;;;;;15.70;100.00;100443.53;5264777;28;20507;-69
2022/05/24 09:44:04;;;;;;;4.00;2.80;;;;;;;15.89;100.00;100462.59;5263464;28;20103;-70
2022/05/24 09:46:36;;;;;;;5.03;2.67;;;;;;;16.10;100.00;100448.75;5259982;28;20714;-69
2022/05/24 09:49:32;;;;;;;4.32;2.80;;;;;;;16.67;100.00;100458.91;5267218;28;20217;-69
2022/05/24 09:52:12;;;;;;;3.30;2.80;;;;;;;16.87;100.00;100467.97;5262285;28;20483;-70
2022/05/24 09:54:55;;;;;;;6.97;3.15;;;;;;;17.20;100.00;100459.72;5268126;28;20021;-71
2022/05/24 09:57:29;;;;;;;4.32;2.45;;;;;;;17.47;100.00;100452.94;5267258;28;20059;-71
2022/05/24 10:00:20;;;;;;;6.15;2.70;;;;;;;17.96;100.00;100457.63;5265102;28;20033;-70
2022/05/24 10:03:06;;;;;;;4.30;3.13;;;;;;;18.20;100.00;100459.06;5259261;28;20470;-70
2022/05/24 10:05:39;;;;;;;4.18;3.50;;;;;;;18.22;100.00;100471.13;5261157;28;20058;-69
2022/05/24 10:08:15;;;;;;;3.38;3.00;;;;;;;18.31;100.00;100460.41;5262574;28;20083;-70
2022/05/24 10:10:52;;;;;;;4.85;2.42;;;;;;;18.28;100.00;100468.72;5264742;28;20055;-70
2022/05/24 10:13:51;;;;;;;3.53;2.55;;;;;;;18.47;100.00;100462.78;5267905;28;20110;-70
2022/05/24 10:16:43;;;;;;;3.60;2.65;;;;;;;18.47;100.00;100460.94;5257060;28;20056;-71
2022/05/24 10:19:31;;;;;;;4.22;2.50;;;;;;;18.29;100.00;100468.53;5257466;28;20067;-71
2022/05/24 10:22:12;;;;;;;4.28;2.70;;;;;;;18.22;100.00;100475.59;5258947;28;20530;-70
2022/05/24 10:25:10;;;;;;;4.68;2.72;;;;;;;18.37;100.00;100481.69;5253925;28;20024;-70
2022/05/24 10:28:04;;;;;;;3.80;2.80;;;;;;;18.36;100.00;100473.91;5254923;28;20013;-70
2022/05/24 10:30:50;;;;;;;;;;;;;;;18.71;100.00;100477.50;5256691;28;20401;-69
2022/05/24 10:39:28;;;;;;;2.78;2.42;;;;;;;18.32;100.00;100491.22;5262880;28;20044;-69
2022/05/24 10:42:26;;;;;;;3.53;2.38;;;;;;;18.31;100.00;100497.53;5263404;28;20024;-69
2022/05/24 10:45:04;;;;;;;4.65;3.00;;;;;;;17.99;100.00;100502.28;5259433;28;20033;-69
2022/05/24 10:48:01;;;;;;;5.05;3.17;;;;;;;18.12;100.00;100497.13;5259832;28;20045;-70
2022/05/24 10:50:45;;;;;;;3.78;3.03;;;;;;;17.87;100.00;100503.78;5254707;28;20355;-70
2022/05/24 10:53:24;;;;;;;5.68;3.10;;;;;;;17.79;100.00;100506.53;5259583;28;20028;-69
2022/05/24 10:56:26;;;;;;;4.90;3.05;;;;;;;18.04;100.00;100499.91;5266454;28;20028;-70
2022/05/24 10:59:05;;;;;;;4.05;3.22;;;;;;;17.86;100.00;100496.84;5263668;28;20071;-70
2022/05/24 11:01:45;;;;;;;6.30;2.17;;;;;;;17.74;100.00;100501.75;5263805;28;20021;-70
2022/05/24 11:04:25;;;;;;;3.05;2.03;;;;;;;17.77;100.00;100509.38;5259380;28;20532;-69
2022/05/24 11:07:03;;;;;;;3.85;2.10;;;;;;;17.77;100.00;100498.78;5261954;28;20115;-70
2022/05/24 11:09:46;;;;;;;4.82;2.10;;;;;;;17.99;100.00;100508.41;5264741;28;20077;-70
2022/05/24 11:12:27;;;;;;;4.45;2.20;;;;;;;18.51;100.00;100500.34;5265027;28;20524;-70
2022/05/24 11:15:28;;;;;;;4.88;2.55;;;;;;;18.54;100.00;100500.81;5263809;28;20035;-70
2022/05/24 11:18:10;;;;;;;4.60;2.70;;;;;;;18.46;100.00;100495.63;5264869;28;20561;-70
2022/05/24 11:20:51;;;;;;;4.13;2.83;;;;;;;18.78;100.00;100502.25;5264385;28;20394;-70
2022/05/24 11:23:45;;;;;;;3.05;2.28;;;;;;;19.21;100.00;100502.16;5264411;28;20341;-69
2022/05/24 11:26:28;;;;;;;4.63;2.97;;;;;;;19.14;100.00;100491.50;5262157;28;20016;-70
2022/05/24 11:29:17;;;;;;;3.17;2.33;;;;;;;19.49;100.00;100503.94;5262724;28;20044;-70
2022/05/24 11:32:09;;;;;;;2.75;2.00;;;;;;;19.26;100.00;100505.03;5261270;28;20707;-70
2022/05/24 11:34:57;;;;;;;3.00;2.10;;;;;;;18.87;100.00;100511.72;5264922;28;20074;-70
2022/05/24 11:37:34;;;;;;;3.63;2.30;;;;;;;18.81;100.00;100509.03;5264449;28;20044;-70
2022/05/24 11:40:21;;;;;;;3.10;2.05;;;;;;;19.34;100.00;100520.00;5262935;28;20549;-70
2022/05/24 11:42:52;;;;;;;5.22;2.38;;;;;;;19.50;100.00;100517.03;5266521;28;20029;-70
2022/05/24 11:45:30;;;;;;;4.40;2.47;;;;;;;19.61;100.00;100521.78;5262730;28;20173;-70
2022/05/24 11:48:17;;;;;;;5.20;2.50;;;;;;;19.75;100.00;100524.53;5261866;28;20036;-70
2022/05/24 11:50:50;;;;;;;3.28;2.33;;;;;;;19.59;100.00;100526.50;5263396;28;20087;-70
2022/05/24 11:53:21;;;;;;;3.00;2.13;;;;;;;19.82;100.00;100526.22;5263154;28;20260;-70
2022/05/24 11:55:56;;;;;;;3.20;2.20;;;;;;;20.19;100.00;100540.03;5262952;28;20020;-71
2022/05/24 11:58:30;;;;;;;2.38;1.75;;;;;;;20.32;100.00;100525.94;5259717;28;20397;-70
2022/05/24 12:01:06;;;;;;;3.60;1.77;;;;;;;20.06;100.00;100530.19;5261266;28;20025;-70
2022/05/24 12:09:26;;;;;;;8.80;2.00;;;;;;;19.17;100.00;100546.88;5263921;28;20123;-70
2022/05/24 12:12:20;;;;;;;4.85;2.35;;;;;;;18.94;100.00;100565.69;5266261;28;20025;-70
2022/05/24 12:15:08;;;;;;;3.15;1.63;;;;;;;18.26;100.00;100577.66;5263274;28;20044;-69
2022/05/24 12:17:40;;;;;;;3.25;1.60;;;;;;;17.68;100.00;100577.50;5265356;28;20508;-70
2022/05/24 12:20:49;;;;;;;3.63;1.80;;;;;;;17.96;100.00;100595.44;5264989;28;20020;-69
2022/05/24 12:23:30;;;;;;;2.40;1.70;;;;;;;17.63;100.00;100589.66;5267357;28;20040;-69
2022/05/24 12:26:04;;;;;;;3.22;1.80;;;;;;;17.42;100.00;100588.53;5268813;28;20401;-69
2022/05/24 12:28:36;;;;;;;2.85;1.50;;;;;;;17.32;100.00;100588.00;5269245;28;20035;-69
2022/05/24 12:31:16;;;;;;;2.65;1.35;;;;;;;17.21;100.00;100583.94;5267201;28;20028;-69
2022/05/24 12:33:53;;;;;;;3.45;1.10;;;;;;;17.05;100.00;100599.97;5267640;28;20525;-69
2022/05/24 12:36:39;;;;;;;2.58;1.20;;;;;;;17.29;100.00;100616.66;5267896;28;20060;-69
2022/05/24 12:39:16;;;;;;;2.78;1.38;;;;;;;17.01;100.00;100619.88;5267665;28;20125;-69
2022/05/24 12:41:50;;;;;;;4.78;1.35;;;;;;;16.98;100.00;100623.69;5270279;28;20492;-69